Time;durP1;ratioP1;P1;durP2;ratioP2;P2;SDS_P1;SDS_P2;PMS_P1;PMS_P2;Temp;Humidity;BMP_temperature;BMP_pressure;BME280_temperature;BME280_humidity;BME280_pressure;Samples;Min_cycle;Max_cycle;Signal;HPM_P1;HPM_P2
2022/12/10 00:02:14;;;;;;;31.00;7.15;;;;;;;13.17;100.00;97277.50;5092862;28;20044;-92
2022/12/10 00:04:40;;;;;;;25.58;6.75;;;;;;;13.21;100.00;97305.72;5094801;28;20440;-93
2022/12/10 00:07:05;;;;;;;27.77;7.30;;;;;;;13.13;100.00;97290.16;5093193;28;20036;-92
2022/12/10 00:09:31;;;;;;;27.98;7.22;;;;;;;13.15;100.00;97285.59;5093481;28;20040;-92
2022/12/10 00:11:57;;;;;;;23.27;6.13;;;;;;;13.06;100.00;97263.00;5094744;28;20044;-92
2022/12/10 00:14:24;;;;;;;35.95;6.82;;;;;;;13.15;100.00;97277.59;5111626;28;20038;-91
2022/12/10 00:16:50;;;;;;;26.52;6.35;;;;;;;13.05;100.00;97253.25;5094404;28;20441;-94
2022/12/10 00:19:16;;;;;;;27.52;6.10;;;;;;;13.04;100.00;97256.91;5096547;28;20067;-91
2022/12/10 00:21:43;;;;;;;24.13;6.32;;;;;;;13.12;100.00;97264.44;5093587;28;20043;-92
2022/12/10 00:24:10;;;;;;;28.42;6.57;;;;;;;13.01;100.00;97251.75;5095366;28;20036;-93
2022/12/10 00:26:37;;;;;;;28.88;6.32;;;;;;;13.12;100.00;97270.63;5093513;28;20073;-92
2022/12/10 00:29:06;;;;;;;26.40;6.25;;;;;;;12.97;100.00;97258.22;5095311;28;20046;-93
2022/12/10 00:31:35;;;;;;;37.90;6.83;;;;;;;13.04;100.00;97266.72;5094338;28;20119;-92
2022/12/10 00:34:05;;;;;;;30.60;6.13;;;;;;;12.94;100.00;97253.06;5096970;28;20048;-92
2022/12/10 00:36:33;;;;;;;24.95;5.85;;;;;;;13.08;100.00;97265.59;5095010;28;20153;-94
2022/12/10 00:38:59;;;;;;;26.60;6.18;;;;;;;13.01;100.00;97245.53;5093393;28;20629;-92
2022/12/10 00:41:25;;;;;;;26.95;6.30;;;;;;;13.01;100.00;97248.22;5093595;28;20711;-92
2022/12/10 00:43:51;;;;;;;26.33;7.22;;;;;;;12.98;100.00;97243.91;5094390;28;20036;-93
2022/12/10 00:46:19;;;;;;;31.17;6.30;;;;;;;13.02;100.00;97253.47;5093952;28;20075;-92
2022/12/10 00:48:46;;;;;;;35.75;6.40;;;;;;;12.79;100.00;97211.31;5095180;28;20073;-95
2022/12/10 00:51:14;;;;;;;29.33;5.45;;;;;;;12.86;100.00;97221.53;5094152;28;20046;-93
2022/12/10 00:53:44;;;;;;;27.90;6.00;;;;;;;12.85;100.00;97217.13;5094923;28;20044;-92
2022/12/10 00:56:12;;;;;;;29.88;6.30;;;;;;;12.91;100.00;97214.09;5127080;27;20036;-90
2022/12/10 00:58:38;;;;;;;24.10;5.70;;;;;;;12.95;100.00;97212.97;5095684;28;20067;-93
2022/12/10 01:01:09;;;;;;;30.67;7.28;;;;;;;13.07;100.00;97232.69;5094651;28;20047;-93
2022/12/10 01:03:35;;;;;;;32.70;6.55;;;;;;;13.06;100.00;97227.44;5095493;28;20509;-93
2022/12/10 01:06:11;;;;;;;24.17;6.20;;;;;;;12.95;100.00;97217.44;5093910;28;20047;-93
2022/12/10 01:08:37;;;;;;;41.58;7.60;;;;;;;13.11;100.00;97244.88;5092445;28;20048;-94
2022/12/10 01:11:04;;;;;;;35.35;6.68;;;;;;;13.02;100.00;97223.25;5093567;28;20621;-93
2022/12/10 01:13:29;;;;;;;32.45;6.28;;;;;;;12.85;100.00;97194.94;5091977;28;20040;-92
2022/12/10 01:15:55;;;;;;;24.42;6.35;;;;;;;13.04;100.00;97216.88;5090806;28;20027;-93
2022/12/10 01:18:21;;;;;;;37.17;5.88;;;;;;;12.89;100.00;97210.66;5092498;28;20067;-93
2022/12/10 01:20:47;;;;;;;34.17;7.28;;;;;;;12.91;100.00;97211.44;5091946;28;20048;-92
2022/12/10 01:23:14;;;;;;;24.23;6.05;;;;;;;12.90;100.00;97217.72;5091057;28;20070;-93
2022/12/10 01:25:40;;;;;;;24.40;5.82;;;;;;;12.75;100.00;97199.97;5091844;28;20050;-93
2022/12/10 01:28:06;;;;;;;24.92;5.93;;;;;;;12.76;100.00;97201.69;5091871;28;20036;-92
2022/12/10 01:30:32;;;;;;;26.98;6.25;;;;;;;12.94;100.00;97227.22;5090540;28;20127;-93
2022/12/10 01:32:58;;;;;;;28.70;5.70;;;;;;;12.85;100.00;97205.59;5092516;28;20392;-93
2022/12/10 01:35:24;;;;;;;31.90;6.57;;;;;;;12.93;100.00;97214.00;5093608;28;20142;-93
2022/12/10 01:37:49;;;;;;;30.23;7.07;;;;;;;13.04;100.00;97219.53;5093942;28;20047;-92
2022/12/10 01:40:17;;;;;;;30.33;6.32;;;;;;;13.05;100.00;97223.91;5091182;28;20056;-91
2022/12/10 01:42:43;;;;;;;28.88;6.00;;;;;;;13.08;100.00;97218.41;5092202;28;20046;-91
2022/12/10 01:45:11;;;;;;;32.50;6.03;;;;;;;12.93;100.00;97190.84;5123286;28;20040;-92
2022/12/10 01:47:37;;;;;;;27.38;5.32;;;;;;;13.10;100.00;97210.31;5091773;28;20105;-92
2022/12/10 01:50:05;;;;;;;27.05;6.05;;;;;;;13.14;100.00;97198.44;5092276;28;20040;-93
2022/12/10 01:52:31;;;;;;;27.65;6.35;;;;;;;13.23;100.00;97211.25;5091691;28;20708;-92
2022/12/10 01:54:57;;;;;;;26.00;5.28;;;;;;;13.25;100.00;97201.34;5091211;28;20026;-92
2022/12/10 01:57:27;;;;;;;29.83;5.40;;;;;;;13.30;100.00;97198.41;5099137;27;20066;-92
2022/12/10 01:59:57;;;;;;;35.17;6.75;;;;;;;13.23;100.00;97200.56;5116848;28;20126;-91
2022/12/10 02:02:40;;;;;;;29.35;6.00;;;;;;;13.22;100.00;97185.50;5113230;27;20138;-93
2022/12/10 02:05:21;;;;;;;29.73;5.68;;;;;;;13.30;100.00;97195.72;5113979;28;20043;-93
2022/12/10 02:07:59;;;;;;;28.40;5.18;;;;;;;13.30;100.00;97193.06;5117214;27;20062;-91
2022/12/10 02:10:39;;;;;;;46.50;6.55;;;;;;;13.30;100.00;97185.91;5116887;28;20125;-91
2022/12/10 02:13:13;;;;;;;31.58;6.03;;;;;;;13.30;100.00;97183.22;5113743;27;20043;-92
2022/12/10 02:15:43;;;;;;;34.88;6.03;;;;;;;13.32;100.00;97184.00;5113792;27;20435;-92
2022/12/10 02:18:14;;;;;;;27.92;6.00;;;;;;;13.25;100.00;97166.63;5114267;28;20084;-93
2022/12/10 02:20:43;;;;;;;27.77;6.68;;;;;;;13.23;100.00;97156.97;5113286;28;20130;-93
2022/12/10 02:23:10;;;;;;;;;;;;;;;13.35;100.00;97161.59;5116140;27;20034;-92
2022/12/10 02:25:41;;;;;;;24.38;6.22;;;;;;;13.30;100.00;97158.34;5117677;27;21077;-92
2022/12/10 02:28:17;;;;;;;40.50;6.07;;;;;;;13.36;100.00;97163.31;5114695;28;20121;-93
2022/12/10 02:30:46;;;;;;;33.53;5.57;;;;;;;13.23;100.00;97133.84;5114972;28;20035;-92
2022/12/10 02:33:14;;;;;;;33.67;6.63;;;;;;;13.14;100.00;97131.72;5119392;27;20047;-92
2022/12/10 02:35:41;;;;;;;40.53;7.03;;;;;;;13.10;100.00;97125.75;5115862;27;20136;-93
2022/12/10 02:38:12;;;;;;;38.95;6.55;;;;;;;13.31;100.00;97152.91;5121485;28;20113;-93
2022/12/10 02:40:41;;;;;;;33.83;6.05;;;;;;;13.24;100.00;97138.22;5119999;27;20047;-92
2022/12/10 02:43:09;;;;;;;37.10;6.55;;;;;;;13.30;100.00;97143.19;5116495;28;20059;-92
2022/12/10 02:45:35;;;;;;;31.80;6.10;;;;;;;13.28;100.00;97136.22;5116684;27;20395;-93
2022/12/10 02:48:04;;;;;;;32.20;6.28;;;;;;;13.25;100.00;97117.69;5114436;28;20381;-91
2022/12/10 02:50:30;;;;;;;;;;;;;;;13.31;100.00;97126.19;5116479;27;20126;-92
2022/12/10 02:52:55;;;;;;;25.77;5.35;;;;;;;13.24;100.00;97102.66;5119356;27;20013;-92
2022/12/10 02:55:21;;;;;;;38.75;6.15;;;;;;;13.24;100.00;97100.00;5124662;27;20039;-92
2022/12/10 02:57:59;;;;;;;29.92;6.07;;;;;;;13.28;100.00;97105.06;5119500;27;20162;-93
2022/12/10 03:00:26;;;;;;;34.60;6.22;;;;;;;13.20;100.00;97082.44;5118972;27;20047;-92
2022/12/10 03:03:12;;;;;;;31.52;5.90;;;;;;;13.11;100.00;97057.22;5122981;27;20038;-92
2022/12/10 03:05:46;;;;;;;37.53;6.68;;;;;;;13.15;100.00;97059.59;5118857;27;20038;-91
2022/12/10 03:08:16;;;;;;;31.13;6.22;;;;;;;13.14;100.00;97049.88;5119942;27;20054;-91
2022/12/10 03:10:50;;;;;;;37.92;6.53;;;;;;;13.13;100.00;97041.97;5120049;27;20022;-91
2022/12/10 03:13:20;;;;;;;25.73;5.45;;;;;;;13.28;100.00;97064.13;5120073;27;20055;-92
2022/12/10 03:15:50;;;;;;;35.03;6.97;;;;;;;13.20;100.00;97050.44;5117574;27;20041;-92
2022/12/10 03:18:22;;;;;;;32.47;6.32;;;;;;;13.08;100.00;97025.41;5122803;27;20039;-92
2022/12/10 03:20:51;;;;;;;31.63;5.55;;;;;;;13.19;100.00;97054.91;5118916;27;20046;-90
2022/12/10 03:23:18;;;;;;;;;;;;;;;13.29;100.00;97053.41;5121175;27;20480;-92
2022/12/10 03:25:47;;;;;;;24.33;4.85;;;;;;;13.33;100.00;97056.69;5123825;27;20360;-91
2022/12/10 03:28:13;;;;;;;;;;;;;;;13.28;100.00;97051.66;5120515;27;20395;-91
2022/12/10 03:30:41;;;;;;;24.52;5.18;;;;;;;13.15;100.00;97026.72;5117205;27;20018;-91
2022/12/10 03:33:07;;;;;;;23.27;6.25;;;;;;;13.13;100.00;97031.28;5119788;27;20046;-91
2022/12/10 03:35:35;;;;;;;26.63;7.13;;;;;;;13.19;100.00;97038.06;5118321;27;20038;-92
2022/12/10 03:38:04;;;;;;;21.17;5.13;;;;;;;13.06;100.00;97021.97;5126859;27;20058;-92
2022/12/10 03:40:31;;;;;;;30.90;5.93;;;;;;;13.05;100.00;97028.25;5121718;27;20506;-93
2022/12/10 03:42:56;;;;;;;31.90;6.15;;;;;;;12.97;100.00;97015.44;5122560;27;20039;-95
2022/12/10 03:45:22;;;;;;;29.60;5.50;;;;;;;13.05;100.00;97020.25;5123636;27;20500;-92
2022/12/10 03:47:49;;;;;;;25.73;5.78;;;;;;;13.01;100.00;97010.72;5117640;27;20061;-92
2022/12/10 03:50:15;;;;;;;23.65;5.20;;;;;;;12.94;100.00;96994.25;5121797;27;20039;-94
2022/12/10 03:52:42;;;;;;;27.73;5.40;;;;;;;12.97;100.00;97002.09;5120498;27;20061;-92
2022/12/10 03:55:09;;;;;;;23.08;5.68;;;;;;;12.99;100.00;96983.28;5122572;27;20048;-93
2022/12/10 03:57:35;;;;;;;27.40;5.30;;;;;;;13.02;100.00;96996.44;5122291;27;20095;-93
2022/12/10 04:00:01;;;;;;;31.10;5.22;;;;;;;13.05;100.00;97004.25;5119354;27;20433;-91
2022/12/10 04:02:27;;;;;;;22.20;4.45;;;;;;;13.02;100.00;96996.44;5117582;27;20051;-91
2022/12/10 04:04:53;;;;;;;26.52;5.22;;;;;;;13.08;100.00;96996.06;5119388;27;20126;-91
2022/12/10 04:07:18;;;;;;;20.40;4.80;;;;;;;12.89;100.00;96959.88;5116714;27;20038;-91
2022/12/10 04:09:46;;;;;;;22.20;5.50;;;;;;;12.80;100.00;96944.50;5117853;27;20081;-91
2022/12/10 04:12:12;;;;;;;22.70;4.45;;;;;;;13.01;100.00;96981.38;5118510;27;20031;-91
2022/12/10 04:17:37;;;;;;;22.08;4.93;;;;;;;13.05;100.00;96989.06;5113326;27;20404;-92
2022/12/10 04:20:04;;;;;;;19.00;4.15;;;;;;;13.00;100.00;96982.34;5112286;28;20487;-93
2022/12/10 04:28:28;;;;;;;17.67;4.63;;;;;;;12.94;100.00;96962.25;5085586;27;20731;-93
2022/12/10 04:30:54;;;;;;;21.60;4.55;;;;;;;12.99;100.00;96975.28;5075625;28;20071;-92
2022/12/10 04:33:20;;;;;;;20.77;4.15;;;;;;;12.93;100.00;96981.91;5083176;28;20036;-91
2022/12/10 04:35:45;;;;;;;19.23;5.22;;;;;;;12.99;100.00;96993.97;5082975;28;20037;-92
2022/12/10 04:38:11;;;;;;;20.92;4.35;;;;;;;12.80;100.00;96963.16;5082042;28;20037;-92
2022/12/10 04:40:37;;;;;;;22.50;5.03;;;;;;;12.82;100.00;96966.59;5081230;28;20036;-91
2022/12/10 04:43:03;;;;;;;21.67;4.55;;;;;;;13.05;100.00;97004.25;5083529;28;20040;-91
2022/12/10 04:45:30;;;;;;;23.10;4.72;;;;;;;12.92;100.00;96975.72;5077533;28;20068;-90
2022/12/10 04:47:56;;;;;;;22.52;4.00;;;;;;;13.00;100.00;96996.53;5080235;28;20090;-92
2022/12/10 04:50:22;;;;;;;22.80;5.95;;;;;;;13.02;100.00;96994.63;5093081;28;20052;-93
2022/12/10 04:52:48;;;;;;;25.05;5.65;;;;;;;12.95;100.00;96971.97;5087098;28;20481;-93
2022/12/10 04:55:16;;;;;;;24.13;4.50;;;;;;;12.98;100.00;96981.59;5093062;28;20070;-95
2022/12/10 04:57:42;;;;;;;28.95;5.15;;;;;;;12.92;100.00;96965.03;5082889;28;20024;-94
2022/12/10 05:00:09;;;;;;;16.15;3.90;;;;;;;12.94;100.00;96952.44;5085574;28;20524;-95
2022/12/10 05:02:37;;;;;;;25.33;4.93;;;;;;;12.87;100.00;96948.47;5073729;28;20049;-93
2022/12/10 05:05:03;;;;;;;21.50;5.05;;;;;;;12.93;100.00;96949.88;5078567;28;20040;-93
2022/12/10 05:07:28;;;;;;;18.67;4.45;;;;;;;12.91;100.00;96949.13;5089997;28;20497;-93
2022/12/10 05:09:54;;;;;;;22.30;4.25;;;;;;;12.85;100.00;96939.69;5089679;28;20059;-93
2022/12/10 05:12:20;;;;;;;20.90;5.03;;;;;;;12.85;100.00;96953.03;5080232;28;20045;-92
2022/12/10 05:14:46;;;;;;;19.85;4.25;;;;;;;12.87;100.00;96948.47;5079905;28;20036;-92
2022/12/10 05:17:12;;;;;;;15.70;3.88;;;;;;;12.77;100.00;96936.66;5089999;28;20040;-93
2022/12/10 05:19:39;;;;;;;22.58;4.20;;;;;;;12.84;100.00;96946.00;5085290;28;20045;-93
2022/12/10 05:25:06;;;;;;;19.02;4.30;;;;;;;12.86;100.00;96948.53;5115978;27;20742;-94
2022/12/10 05:27:32;;;;;;;16.73;3.83;;;;;;;12.97;100.00;96966.53;5116597;28;20065;-95
2022/12/10 05:29:58;;;;;;;19.25;4.60;;;;;;;12.81;100.00;96940.00;5115337;27;20040;-93
2022/12/10 05:32:24;;;;;;;15.57;3.65;;;;;;;13.00;100.00;96942.31;5113464;27;20093;-94
2022/12/10 05:34:50;;;;;;;15.10;4.65;;;;;;;12.90;100.00;96937.59;5113327;27;20491;-94
2022/12/10 05:37:16;;;;;;;11.98;3.83;;;;;;;12.79;100.00;96928.56;5112711;27;20040;-91
2022/12/10 05:39:41;;;;;;;15.63;4.18;;;;;;;12.70;100.00;96930.03;5111397;28;20036;-93
2022/12/10 05:42:09;;;;;;;18.25;5.00;;;;;;;12.78;100.00;96950.88;5111593;28;20028;-94
2022/12/10 05:44:35;;;;;;;18.33;4.38;;;;;;;12.79;100.00;96955.25;5111259;28;20043;-93
2022/12/10 05:47:01;;;;;;;18.48;4.85;;;;;;;12.75;100.00;96959.91;5110225;27;20489;-92
2022/12/10 05:49:26;;;;;;;16.55;4.35;;;;;;;12.61;100.00;96941.31;5109747;28;20052;-92
2022/12/10 05:51:56;;;;;;;14.02;4.22;;;;;;;12.68;100.00;96962.13;5110237;28;21903;-92
2022/12/10 05:54:25;;;;;;;12.02;3.88;;;;;;;12.71;100.00;96977.94;5111486;28;20093;-91
2022/12/10 05:56:51;;;;;;;9.32;3.70;;;;;;;12.63;100.00;96958.91;5112370;28;20581;-92
2022/12/10 05:59:18;;;;;;;11.15;3.33;;;;;;;12.40;100.00;96927.53;5116563;27;20036;-91
2022/12/10 06:01:44;;;;;;;10.52;3.17;;;;;;;12.50;100.00;96937.50;5108182;28;20036;-91
2022/12/10 06:04:11;;;;;;;10.43;2.50;;;;;;;12.67;100.00;96964.91;5110176;28;20044;-91
2022/12/10 06:06:38;;;;;;;6.07;2.10;;;;;;;12.53;100.00;96953.34;5109891;28;20505;-91
2022/12/10 06:09:05;;;;;;;5.47;2.00;;;;;;;12.54;100.00;96965.69;5110111;28;20063;-91
2022/12/10 06:11:31;;;;;;;4.43;2.00;;;;;;;12.49;100.00;96959.81;5110979;28;20043;-90
2022/12/10 06:13:58;;;;;;;5.20;2.00;;;;;;;12.40;100.00;96947.03;5110056;28;20043;-91
2022/12/10 06:16:27;;;;;;;3.53;1.70;;;;;;;12.49;100.00;96953.59;5107495;28;20044;-90
2022/12/10 06:18:56;;;;;;;3.92;1.70;;;;;;;12.51;100.00;96960.56;5112521;28;20429;-90
2022/12/10 06:21:23;;;;;;;7.70;2.80;;;;;;;12.54;100.00;96967.50;5112569;28;20047;-91
2022/12/10 06:23:51;;;;;;;10.00;3.42;;;;;;;12.64;100.00;96984.63;5111429;28;20039;-92
2022/12/10 06:26:20;;;;;;;8.15;3.28;;;;;;;12.59;100.00;96986.72;5111352;27;20035;-91
2022/12/10 06:28:46;;;;;;;8.13;3.15;;;;;;;12.61;100.00;96991.97;5107487;27;20075;-90
2022/12/10 06:31:13;;;;;;;7.45;3.20;;;;;;;12.59;100.00;96993.88;5105047;28;20051;-90
2022/12/10 06:33:41;;;;;;;9.18;3.45;;;;;;;12.59;100.00;96991.22;5109535;28;20146;-91
2022/12/10 06:36:08;;;;;;;10.10;4.22;;;;;;;12.63;100.00;97000.72;5097979;27;20036;-90
2022/12/10 06:38:34;;;;;;;10.13;4.63;;;;;;;12.46;100.00;96973.31;5097531;28;20390;-90
2022/12/10 06:41:03;;;;;;;8.02;3.58;;;;;;;12.45;100.00;96973.44;5094388;28;20136;-90
2022/12/10 06:43:29;;;;;;;8.77;2.80;;;;;;;12.44;100.00;96969.03;5095603;28;20046;-89
2022/12/10 06:45:55;;;;;;;11.10;3.10;;;;;;;12.53;100.00;96987.09;5091864;28;20032;-90
2022/12/10 06:48:21;;;;;;;11.63;2.58;;;;;;;12.49;100.00;96977.59;5096357;28;20404;-89
2022/12/10 06:50:48;;;;;;;6.63;3.20;;;;;;;12.54;100.00;96989.69;5095719;28;20040;-91
2022/12/10 06:53:14;;;;;;;7.60;2.92;;;;;;;12.42;100.00;96969.13;5094817;28;20038;-90
2022/12/10 06:55:40;;;;;;;5.80;2.83;;;;;;;12.46;100.00;96969.81;5095867;28;20036;-90
2022/12/10 06:58:05;;;;;;;7.90;3.20;;;;;;;12.53;100.00;96989.78;5095992;28;20040;-90
2022/12/10 07:00:31;;;;;;;8.13;3.10;;;;;;;12.32;100.00;96952.88;5094228;28;20044;-90
2022/12/10 07:02:57;;;;;;;4.45;2.30;;;;;;;12.42;100.00;96971.78;5094030;28;20401;-90
2022/12/10 07:05:23;;;;;;;6.20;2.60;;;;;;;12.39;100.00;96963.16;5094212;28;20044;-90
2022/12/10 07:07:50;;;;;;;8.50;2.92;;;;;;;12.45;100.00;96968.94;5093567;28;20094;-90
2022/12/10 07:10:16;;;;;;;8.65;3.03;;;;;;;12.44;100.00;96961.88;5093109;28;20046;-90
2022/12/10 07:12:42;;;;;;;5.85;2.92;;;;;;;12.38;100.00;96940.94;5093476;28;20074;-89
2022/12/10 07:15:09;;;;;;;6.13;2.38;;;;;;;12.47;100.00;96971.50;5092915;28;20159;-90
2022/12/10 07:17:34;;;;;;;8.65;2.65;;;;;;;12.53;100.00;96985.31;5094603;28;20110;-92
2022/12/10 07:20:02;;;;;;;8.45;2.70;;;;;;;12.39;100.00;96956.00;5094879;28;20036;-92
2022/12/10 07:22:28;;;;;;;7.93;2.65;;;;;;;12.56;100.00;96960.28;5093432;28;20043;-90
2022/12/10 07:24:55;;;;;;;6.25;2.60;;;;;;;12.47;100.00;96959.03;5093877;28;20409;-91
2022/12/10 07:27:21;;;;;;;4.40;2.22;;;;;;;12.60;100.00;96964.47;5094099;28;20040;-90
2022/12/10 07:29:47;;;;;;;6.75;2.38;;;;;;;12.63;100.00;96940.25;5094679;28;20136;-91
2022/12/10 07:32:13;;;;;;;3.05;1.92;;;;;;;12.63;100.00;96948.25;5092345;28;20040;-90
2022/12/10 07:34:38;;;;;;;6.75;2.38;;;;;;;12.64;100.00;96963.31;5093232;28;21673;-91
2022/12/10 07:37:04;;;;;;;7.80;2.70;;;;;;;12.63;100.00;96966.06;5094019;28;20033;-92
2022/12/10 07:39:30;;;;;;;6.55;2.60;;;;;;;12.60;100.00;96945.78;5093724;28;20043;-91
2022/12/10 07:41:58;;;;;;;7.70;2.60;;;;;;;12.46;100.00;96925.34;5093885;28;20016;-90
2022/12/10 07:44:25;;;;;;;8.45;2.53;;;;;;;12.48;100.00;96917.25;5094520;28;21761;-91
2022/12/10 07:46:52;;;;;;;6.97;2.88;;;;;;;12.58;100.00;96926.38;5090129;28;20047;-90
2022/12/10 07:49:19;;;;;;;6.20;2.80;;;;;;;12.82;100.00;96955.06;5091851;28;20098;-92
2022/12/10 07:51:45;;;;;;;7.80;3.03;;;;;;;12.84;100.00;96956.69;5093415;28;20055;-91
2022/12/10 07:54:11;;;;;;;9.40;3.25;;;;;;;12.73;100.00;96927.19;5092289;28;20040;-91
2022/12/10 07:56:37;;;;;;;7.88;2.50;;;;;;;12.80;100.00;96931.16;5094687;28;20143;-91
2022/12/10 07:59:06;;;;;;;8.95;2.55;;;;;;;12.92;100.00;96949.03;5094596;28;20046;-88
2022/12/10 08:01:32;;;;;;;8.27;2.85;;;;;;;12.99;100.00;96937.94;5095736;28;20060;-91
2022/12/10 08:03:59;;;;;;;7.55;2.53;;;;;;;12.81;100.00;96913.34;5096741;28;20051;-90
2022/12/10 08:06:28;;;;;;;8.60;2.30;;;;;;;12.93;100.00;96937.38;5094233;28;20127;-91
2022/12/10 08:08:55;;;;;;;11.30;3.33;;;;;;;12.86;100.00;96924.53;5096404;28;20043;-92
2022/12/10 08:11:22;;;;;;;11.13;2.88;;;;;;;12.87;100.00;96912.94;5094207;28;20039;-90
2022/12/10 08:13:48;;;;;;;8.95;2.55;;;;;;;13.05;100.00;96933.03;5094541;28;20044;-93
2022/12/10 08:16:18;;;;;;;12.88;3.28;;;;;;;13.15;100.00;96942.16;5092756;28;20040;-91
2022/12/10 08:18:46;;;;;;;8.68;2.50;;;;;;;13.05;100.00;96932.19;5095173;28;20036;-90
2022/12/10 08:21:18;;;;;;;8.80;3.20;;;;;;;12.90;100.00;96894.91;5094987;28;20039;-90
2022/12/10 08:23:44;;;;;;;14.02;3.65;;;;;;;12.94;100.00;96891.06;5096272;28;20092;-91
2022/12/10 08:26:13;;;;;;;10.05;3.08;;;;;;;13.13;100.00;96913.88;5094340;28;20048;-92
2022/12/10 08:28:41;;;;;;;9.35;3.55;;;;;;;13.23;100.00;96920.31;5093368;28;20044;-91
2022/12/10 08:31:09;;;;;;;10.05;4.13;;;;;;;13.26;100.00;96908.56;5091246;28;20370;-91
2022/12/10 08:33:37;;;;;;;10.73;4.38;;;;;;;13.21;100.00;96894.69;5093546;28;20488;-92
2022/12/10 08:36:04;;;;;;;13.40;4.22;;;;;;;13.21;100.00;96890.19;5093856;28;20046;-91
2022/12/10 08:38:36;;;;;;;14.77;4.88;;;;;;;13.26;100.00;96890.72;5095818;28;20055;-92
2022/12/10 08:41:06;;;;;;;22.38;8.65;;;;;;;13.32;100.00;96905.50;5090000;28;20068;-90
2022/12/10 08:43:34;;;;;;;14.70;5.45;;;;;;;13.24;100.00;96900.66;5093866;28;20036;-89
2022/12/10 08:46:02;;;;;;;17.13;5.78;;;;;;;13.36;100.00;96928.38;5091750;28;20497;-92
2022/12/10 08:48:33;;;;;;;24.25;9.23;;;;;;;13.13;100.00;96901.38;5092558;28;20070;-92
2022/12/10 08:51:00;;;;;;;25.17;9.77;;;;;;;13.20;100.00;96908.97;5098098;28;20382;-90
2022/12/10 08:53:26;;;;;;;17.80;7.95;;;;;;;13.33;100.00;96917.88;5094933;28;20059;-92
2022/12/10 08:55:55;;;;;;;21.67;8.30;;;;;;;13.26;100.00;96905.88;5094843;28;20070;-92
2022/12/10 08:58:21;;;;;;;23.60;7.70;;;;;;;13.25;100.00;96901.50;5092188;28;20043;-91
2022/12/10 09:00:48;;;;;;;21.38;7.68;;;;;;;13.26;100.00;96900.56;5093742;28;20039;-92
2022/12/10 09:03:18;;;;;;;16.90;7.75;;;;;;;13.19;100.00;96883.25;5094375;28;20127;-92
2022/12/10 09:05:49;;;;;;;20.90;7.63;;;;;;;13.38;100.00;96920.25;5094986;28;20048;-90
2022/12/10 09:08:24;;;;;;;20.80;7.82;;;;;;;13.21;100.00;96890.19;5094663;28;20044;-92
2022/12/10 09:10:50;;;;;;;24.83;9.65;;;;;;;13.28;100.00;96904.84;5126552;27;20067;-93
2022/12/10 09:13:22;;;;;;;15.15;6.38;;;;;;;13.14;100.00;96881.75;5094732;28;20047;-92
2022/12/10 09:15:53;;;;;;;15.40;6.57;;;;;;;13.15;100.00;96883.44;5093216;28;20160;-92
2022/12/10 09:18:19;;;;;;;15.15;7.07;;;;;;;13.29;100.00;96909.25;5093836;28;20044;-92
2022/12/10 09:20:53;;;;;;;18.27;7.20;;;;;;;13.35;100.00;96900.78;5093982;28;20047;-91
2022/12/10 09:23:20;;;;;;;20.40;7.32;;;;;;;13.40;100.00;96902.31;5092661;28;20055;-90
2022/12/10 09:25:46;;;;;;;20.42;7.18;;;;;;;13.44;100.00;96898.47;5092656;28;20058;-93
2022/12/10 09:28:12;;;;;;;16.23;7.55;;;;;;;13.41;100.00;96898.69;5093593;28;20493;-91
2022/12/10 09:30:38;;;;;;;15.77;8.23;;;;;;;13.41;100.00;96890.69;5092671;28;20044;-93
2022/12/10 09:33:04;;;;;;;17.33;6.97;;;;;;;13.47;100.00;96887.59;5093104;28;20038;-93
2022/12/10 09:35:30;;;;;;;17.02;6.55;;;;;;;13.34;100.00;96863.56;5093365;28;20130;-92
2022/12/10 09:37:56;;;;;;;13.45;5.55;;;;;;;13.41;100.00;96850.63;5092760;28;20042;-90
2022/12/10 09:40:37;;;;;;;12.68;5.72;;;;;;;13.44;100.00;96851.25;5093481;28;20126;-92
2022/12/10 09:43:13;;;;;;;14.02;6.60;;;;;;;13.52;100.00;96861.41;5091763;28;20086;-91
2022/12/10 09:45:52;;;;;;;16.65;7.78;;;;;;;13.51;100.00;96855.22;5092383;28;20036;-94
2022/12/10 09:48:25;;;;;;;36.47;14.57;;;;;;;13.55;100.00;96862.06;5091780;28;20062;-91
2022/12/10 09:50:56;;;;;;;45.13;25.90;;;;;;;13.50;100.00;96844.66;5092411;28;20047;-91
2022/12/10 09:53:24;;;;;;;22.30;10.80;;;;;;;13.60;100.00;96858.19;5092762;28;20041;-92
2022/12/10 09:55:51;;;;;;;19.83;11.35;;;;;;;13.54;100.00;96846.13;5093452;28;20040;-91
2022/12/10 09:58:20;;;;;;;17.88;8.13;;;;;;;13.54;100.00;96838.13;5092887;28;20078;-92
2022/12/10 10:00:49;;;;;;;24.77;10.95;;;;;;;13.58;100.00;96836.09;5091718;28;20112;-91
2022/12/10 10:03:16;;;;;;;14.73;6.57;;;;;;;13.66;100.00;96845.28;5092692;28;20042;-93
2022/12/10 10:05:46;;;;;;;20.67;8.27;;;;;;;13.65;100.00;96845.38;5092527;28;20524;-92
2022/12/10 10:08:22;;;;;;;18.77;9.38;;;;;;;13.46;100.00;96805.75;5092926;28;20052;-91
2022/12/10 10:10:48;;;;;;;20.35;9.95;;;;;;;13.68;100.00;96838.00;5094330;28;20040;-91
2022/12/10 10:13:30;;;;;;;14.50;6.00;;;;;;;13.59;100.00;96816.44;5096721;28;20042;-92
2022/12/10 10:15:57;;;;;;;13.50;5.45;;;;;;;13.52;100.00;96814.19;5095180;28;20055;-91
2022/12/10 10:18:36;;;;;;;16.08;5.93;;;;;;;13.55;100.00;96814.00;5096536;28;20016;-91
2022/12/10 10:21:06;;;;;;;15.48;6.75;;;;;;;13.62;100.00;96805.53;5095952;28;20095;-91
2022/12/10 10:23:34;;;;;;;12.27;5.50;;;;;;;13.59;100.00;96798.59;5096040;28;20020;-92
2022/12/10 10:26:00;;;;;;;14.37;5.63;;;;;;;13.71;100.00;96810.25;5096240;28;20104;-92
2022/12/10 10:28:28;;;;;;;20.10;10.75;;;;;;;13.70;100.00;96806.69;5096100;28;20071;-91
2022/12/10 10:30:54;;;;;;;28.10;10.52;;;;;;;13.61;100.00;96785.13;5093745;28;20047;-92
2022/12/10 10:33:20;;;;;;;31.35;12.45;;;;;;;13.63;100.00;96786.72;5097663;28;20036;-92
2022/12/10 10:35:48;;;;;;;37.13;17.92;;;;;;;13.63;100.00;96785.88;5096689;28;20121;-92
2022/12/10 10:38:19;;;;;;;32.58;14.95;;;;;;;13.57;100.00;96787.16;5097730;28;20131;-93
2022/12/10 10:40:48;;;;;;;26.05;12.35;;;;;;;13.57;100.00;96792.50;5097174;28;20497;-94
2022/12/10 10:43:18;;;;;;;24.85;12.80;;;;;;;13.49;100.00;96778.88;5096449;28;20366;-93
2022/12/10 10:45:56;;;;;;;15.50;7.22;;;;;;;13.25;100.00;96738.69;5094545;28;20159;-93
2022/12/10 10:48:24;;;;;;;8.43;4.27;;;;;;;13.39;100.00;96759.09;5096024;28;20040;-93
2022/12/10 10:51:04;;;;;;;13.55;6.32;;;;;;;13.28;100.00;96738.47;5096613;28;20044;-93
2022/12/10 10:53:40;;;;;;;13.80;6.82;;;;;;;13.37;100.00;96751.19;5094636;28;20036;-93
2022/12/10 10:56:16;;;;;;;11.40;6.00;;;;;;;13.39;100.00;96743.09;5095886;28;20060;-93
2022/12/10 10:59:01;;;;;;;10.10;4.65;;;;;;;13.53;100.00;96754.50;5096206;28;20036;-93
2022/12/10 11:01:45;;;;;;;11.27;5.28;;;;;;;13.42;100.00;96727.69;5094246;28;20052;-93
2022/12/10 11:04:15;;;;;;;8.40;4.88;;;;;;;13.46;100.00;96715.81;5095161;28;20378;-92
2022/12/10 11:06:44;;;;;;;28.30;14.85;;;;;;;13.59;100.00;96741.66;5094161;28;20051;-93
2022/12/10 11:09:19;;;;;;;32.45;17.05;;;;;;;13.41;100.00;96715.31;5095694;28;20397;-92
2022/12/10 11:11:50;;;;;;;10.07;6.22;;;;;;;13.35;100.00;96710.41;5095548;28;20050;-93
2022/12/10 11:14:23;;;;;;;19.67;9.88;;;;;;;13.20;100.00;96693.63;5097191;28;20511;-91
2022/12/10 11:17:00;;;;;;;14.05;6.88;;;;;;;13.17;100.00;96688.53;5095357;28;20071;-94
2022/12/10 11:19:26;;;;;;;11.13;5.60;;;;;;;13.07;100.00;96688.31;5097758;28;20044;-93
2022/12/10 11:21:52;;;;;;;10.80;6.85;;;;;;;13.07;100.00;96695.47;5096831;28;20048;-89
2022/12/10 11:24:21;;;;;;;11.27;7.03;;;;;;;13.14;100.00;96704.72;5096114;28;20050;-91
2022/12/10 11:27:02;;;;;;;15.75;7.68;;;;;;;13.04;100.00;96695.69;5096868;28;20078;-91
2022/12/10 11:29:47;;;;;;;16.30;9.95;;;;;;;12.97;100.00;96684.59;5095806;28;20036;-93
2022/12/10 11:32:31;;;;;;;22.80;11.00;;;;;;;13.00;100.00;96703.03;5097425;28;20054;-92
2022/12/10 11:35:10;;;;;;;14.77;8.48;;;;;;;12.83;100.00;96690.88;5094387;28;20138;-93
2022/12/10 11:37:47;;;;;;;12.93;7.50;;;;;;;12.67;100.00;96664.44;5099190;28;20048;-93